Time;durP1;ratioP1;P1;durP2;ratioP2;P2;SDS_P1;SDS_P2;PMS_P1;PMS_P2;Temp;Humidity;BMP_temperature;BMP_pressure;BME280_temperature;BME280_humidity;BME280_pressure;Samples;Min_cycle;Max_cycle;Signal;HPM_P1;HPM_P2
2022/03/27 00:01:25;;;;;;;147.15;51.78;;;;;;;;;;5067530;28;20509;-48
2022/03/27 00:03:50;;;;;;;136.45;50.47;;;;;;;;;;5067329;28;20055;-49
2022/03/27 00:06:16;;;;;;;138.23;51.38;;;;;;;;;;5069270;28;20056;-48
2022/03/27 00:08:42;;;;;;;141.82;51.65;;;;;;;;;;5068512;28;20411;-48
2022/03/27 00:13:59;;;;;;;150.05;51.38;;;;;;;;;;5066826;28;20043;-48
2022/03/27 00:16:25;;;;;;;144.60;49.67;;;;;;;;;;5066661;28;20090;-52
2022/03/27 00:18:51;;;;;;;130.00;48.85;;;;;;;;;;5066344;28;20032;-49
2022/03/27 00:21:17;;;;;;;144.82;50.13;;;;;;;;;;5064580;28;20044;-49
2022/03/27 00:23:43;;;;;;;142.45;49.05;;;;;;;;;;5067610;28;20089;-49
2022/03/27 00:26:09;;;;;;;137.93;47.80;;;;;;;;;;5067606;28;20020;-49
2022/03/27 00:28:35;;;;;;;136.65;49.72;;;;;;;;;;5068554;28;20435;-49
2022/03/27 00:31:06;;;;;;;139.77;48.28;;;;;;;;;;5067947;28;20067;-49
2022/03/27 00:33:32;;;;;;;147.60;47.72;;;;;;;;;;5062865;28;20031;-49
2022/03/27 00:35:59;;;;;;;141.35;49.47;;;;;;;;;;5071248;28;20036;-48
2022/03/27 00:38:25;;;;;;;131.52;47.38;;;;;;;;;;5063398;28;20107;-50
2022/03/27 00:40:52;;;;;;;138.50;47.55;;;;;;;;;;5065134;28;20108;-48
2022/03/27 00:43:19;;;;;;;130.38;46.75;;;;;;;;;;5065897;28;20119;-49
2022/03/27 00:45:46;;;;;;;128.50;46.80;;;;;;;;;;5066624;28;20451;-48
2022/03/27 00:48:13;;;;;;;125.32;47.15;;;;;;;;;;5071573;28;20097;-49
2022/03/27 00:50:39;;;;;;;125.25;46.00;;;;;;;;;;5062503;28;20064;-48
2022/03/27 00:53:05;;;;;;;138.93;46.22;;;;;;;;;;5066271;28;20483;-48
2022/03/27 00:55:30;;;;;;;129.35;45.55;;;;;;;;;;5066238;28;20040;-48
2022/03/27 00:57:56;;;;;;;143.18;46.08;;;;;;;;;;5067784;28;20362;-49
2022/03/27 01:00:46;;;;;;;127.82;45.78;;;;;;;;;;5061368;28;20052;-49
2022/03/27 01:03:14;;;;;;;133.68;46.25;;;;;;;;;;5068349;28;20468;-48
2022/03/27 01:05:44;;;;;;;123.40;45.08;;;;;;;;;;5068733;28;20084;-48
2022/03/27 01:08:12;;;;;;;136.27;44.78;;;;;;;;;;5064547;28;20028;-49
2022/03/27 01:10:39;;;;;;;134.75;45.17;;;;;;;;;;5065660;28;20064;-48
2022/03/27 01:13:10;;;;;;;130.30;47.58;;;;;;;;;;5069185;28;20048;-48
2022/03/27 01:15:42;;;;;;;139.27;45.95;;;;;;;;;;5069003;28;20115;-48
2022/03/27 01:18:08;;;;;;;127.05;46.13;;;;;;;;;;5063516;28;20084;-49
2022/03/27 01:20:40;;;;;;;130.50;45.17;;;;;;;;;;5063264;28;20647;-48
2022/03/27 01:23:12;;;;;;;;;;;;;;;;;;5065249;28;20375;-49
2022/03/27 01:25:39;;;;;;;128.15;42.95;;;;;;;;;;5068273;28;20310;-48
2022/03/27 01:28:08;;;;;;;120.68;42.65;;;;;;;;;;5066792;28;20036;-48
2022/03/27 01:30:35;;;;;;;118.80;42.53;;;;;;;;;;5063418;28;20074;-48
2022/03/27 01:33:01;;;;;;;114.00;43.22;;;;;;;;;;5065822;28;20561;-49
2022/03/27 01:35:26;;;;;;;118.25;43.72;;;;;;;;;;5064674;28;20063;-48
2022/03/27 01:37:52;;;;;;;117.03;41.55;;;;;;;;;;5070703;28;20035;-51
2022/03/27 01:40:18;;;;;;;113.80;41.83;;;;;;;;;;5070591;28;20532;-48
2022/03/27 01:42:44;;;;;;;111.38;40.95;;;;;;;;;;5065008;28;20032;-50
2022/03/27 01:45:11;;;;;;;108.95;39.88;;;;;;;;;;5061017;28;20036;-48
2022/03/27 01:47:38;;;;;;;106.25;39.72;;;;;;;;;;5056076;28;20032;-48
2022/03/27 01:50:05;;;;;;;98.40;37.45;;;;;;;;;;5058798;28;20036;-48
2022/03/27 01:52:32;;;;;;;105.05;39.55;;;;;;;;;;5072167;28;20363;-49
2022/03/27 01:54:57;;;;;;;104.72;38.00;;;;;;;;;;5062719;28;20025;-49
2022/03/27 01:57:23;;;;;;;100.30;39.55;;;;;;;;;;5063467;28;20024;-49
2022/03/27 01:59:48;;;;;;;106.22;38.97;;;;;;;;;;5062680;28;20029;-48
2022/03/27 02:02:14;;;;;;;101.80;37.80;;;;;;;;;;5063543;28;20457;-48
2022/03/27 02:04:39;;;;;;;103.25;38.42;;;;;;;;;;5058431;28;20040;-48
2022/03/27 02:07:05;;;;;;;104.57;38.70;;;;;;;;;;5064790;28;20419;-49
2022/03/27 02:09:30;;;;;;;102.13;37.53;;;;;;;;;;5061377;28;20347;-48
2022/03/27 02:11:56;;;;;;;99.50;38.80;;;;;;;;;;5064458;28;20045;-49
2022/03/27 02:14:21;;;;;;;96.35;36.72;;;;;;;;;;5064918;28;20085;-48
2022/03/27 02:16:47;;;;;;;93.70;36.60;;;;;;;;;;5063451;28;20048;-48
2022/03/27 02:19:13;;;;;;;100.07;37.13;;;;;;;;;;5060751;28;20036;-49
2022/03/27 02:21:41;;;;;;;92.25;34.75;;;;;;;;;;5061209;28;20517;-48
2022/03/27 02:24:08;;;;;;;95.47;35.55;;;;;;;;;;5063287;28;20048;-48
2022/03/27 02:26:34;;;;;;;94.10;35.53;;;;;;;;;;5062349;28;20016;-48
2022/03/27 02:29:00;;;;;;;91.60;34.47;;;;;;;;;;5061926;28;20044;-48
2022/03/27 02:31:26;;;;;;;83.20;32.28;;;;;;;;;;5062084;28;20059;-48
2022/03/27 02:33:51;;;;;;;87.50;32.70;;;;;;;;;;5059562;28;20071;-48
2022/03/27 02:36:17;;;;;;;91.20;33.17;;;;;;;;;;5064839;28;20032;-49
2022/03/27 02:38:43;;;;;;;79.55;32.67;;;;;;;;;;5061319;28;20087;-49
2022/03/27 02:41:09;;;;;;;92.03;31.55;;;;;;;;;;5065486;28;20041;-48
2022/03/27 02:43:38;;;;;;;84.75;32.38;;;;;;;;;;5062521;28;20024;-48
2022/03/27 02:46:07;;;;;;;102.63;34.30;;;;;;;;;;5065407;28;20090;-48
2022/03/27 02:48:33;;;;;;;89.70;32.42;;;;;;;;;;5066000;28;20024;-49
2022/03/27 02:50:59;;;;;;;82.22;30.52;;;;;;;;;;5065368;28;20398;-48
2022/03/27 02:53:24;;;;;;;80.45;30.75;;;;;;;;;;5064994;28;20032;-50
2022/03/27 02:55:50;;;;;;;82.57;30.88;;;;;;;;;;5065167;28;20116;-48
2022/03/27 02:58:16;;;;;;;93.13;31.83;;;;;;;;;;5067374;28;20047;-48
2022/03/27 03:00:42;;;;;;;82.72;30.85;;;;;;;;;;5062008;28;20044;-48
2022/03/27 03:03:09;;;;;;;83.35;31.48;;;;;;;;;;5066671;28;20035;-48
2022/03/27 03:05:36;;;;;;;87.47;31.52;;;;;;;;;;5063832;28;20127;-49
2022/03/27 03:08:02;;;;;;;74.85;30.08;;;;;;;;;;5066362;28;20028;-48
2022/03/27 03:10:29;;;;;;;94.22;32.10;;;;;;;;;;5065640;28;20047;-48
2022/03/27 03:12:56;;;;;;;84.15;29.63;;;;;;;;;;5063986;28;20067;-48
2022/03/27 03:15:23;;;;;;;87.97;29.60;;;;;;;;;;5067739;28;20074;-48
2022/03/27 03:17:49;;;;;;;83.00;29.80;;;;;;;;;;5067821;28;20051;-48
2022/03/27 03:20:15;;;;;;;90.78;32.30;;;;;;;;;;5066189;28;20481;-48
2022/03/27 03:22:41;;;;;;;84.78;28.88;;;;;;;;;;5063449;28;20074;-48
2022/03/27 03:25:07;;;;;;;77.75;29.08;;;;;;;;;;5064682;28;20537;-48
2022/03/27 03:27:32;;;;;;;78.80;29.70;;;;;;;;;;5065499;28;20111;-48
2022/03/27 03:29:59;;;;;;;82.63;29.35;;;;;;;;;;5062406;28;20111;-48
2022/03/27 03:32:25;;;;;;;79.40;29.85;;;;;;;;;;5066603;28;20037;-48
2022/03/27 03:34:51;;;;;;;81.47;29.60;;;;;;;;;;5065997;28;20081;-50
2022/03/27 03:37:17;;;;;;;76.47;30.17;;;;;;;;;;5059468;28;20036;-48
2022/03/27 03:39:43;;;;;;;75.95;28.38;;;;;;;;;;5069777;28;20489;-48
2022/03/27 03:42:09;;;;;;;72.38;28.45;;;;;;;;;;5069946;28;20102;-48
2022/03/27 03:44:34;;;;;;;83.63;31.73;;;;;;;;;;5066304;28;20566;-48
2022/03/27 03:47:00;;;;;;;73.82;29.27;;;;;;;;;;5067797;28;20036;-48
2022/03/27 03:49:25;;;;;;;75.53;29.15;;;;;;;;;;5066702;28;20031;-48
2022/03/27 03:51:51;;;;;;;85.93;30.90;;;;;;;;;;5065889;28;20613;-52
2022/03/27 03:54:17;;;;;;;83.63;30.92;;;;;;;;;;5065485;28;20781;-48
2022/03/27 03:56:43;;;;;;;86.28;29.88;;;;;;;;;;5067325;28;20470;-48
2022/03/27 03:59:09;;;;;;;77.10;29.70;;;;;;;;;;5065322;28;20029;-48
2022/03/27 04:01:34;;;;;;;85.43;29.80;;;;;;;;;;5065915;28;20043;-49
2022/03/27 04:04:00;;;;;;;76.85;29.80;;;;;;;;;;5064541;28;20028;-48
2022/03/27 04:06:26;;;;;;;87.93;32.05;;;;;;;;;;5062435;28;20045;-48
2022/03/27 04:08:51;;;;;;;84.82;31.13;;;;;;;;;;5065732;28;20036;-49
2022/03/27 04:11:17;;;;;;;90.80;30.98;;;;;;;;;;5064860;28;20448;-49
2022/03/27 04:13:46;;;;;;;89.60;30.50;;;;;;;;;;5063211;28;20037;-49
2022/03/27 04:16:12;;;;;;;77.35;30.33;;;;;;;;;;5063400;28;20641;-50
2022/03/27 04:18:37;;;;;;;79.28;29.95;;;;;;;;;;5062490;28;20040;-50
2022/03/27 04:21:03;;;;;;;87.28;30.55;;;;;;;;;;5064586;28;20086;-49
2022/03/27 04:23:29;;;;;;;75.60;29.40;;;;;;;;;;5062782;28;20151;-49
2022/03/27 04:25:54;;;;;;;92.22;31.45;;;;;;;;;;5063411;28;20040;-49
2022/03/27 04:28:20;;;;;;;89.53;30.40;;;;;;;;;;5061971;28;20081;-49
2022/03/27 04:30:45;;;;;;;80.72;30.08;;;;;;;;;;5064429;28;20076;-48
2022/03/27 04:33:11;;;;;;;83.07;29.27;;;;;;;;;;5063740;28;20177;-49
2022/03/27 04:35:38;;;;;;;81.07;29.35;;;;;;;;;;5060756;28;20116;-49
2022/03/27 04:38:03;;;;;;;79.50;29.65;;;;;;;;;;5070845;28;20054;-49
2022/03/27 04:40:29;;;;;;;73.50;30.15;;;;;;;;;;5063053;28;20038;-49
2022/03/27 04:42:54;;;;;;;78.15;28.92;;;;;;;;;;5072749;28;20459;-49
2022/03/27 04:45:20;;;;;;;73.72;28.08;;;;;;;;;;5064835;28;20037;-50
2022/03/27 04:47:45;;;;;;;69.15;29.40;;;;;;;;;;5063695;28;20027;-49
2022/03/27 04:50:11;;;;;;;76.03;29.48;;;;;;;;;;5062372;28;20131;-48
2022/03/27 04:52:37;;;;;;;78.40;28.23;;;;;;;;;;5063934;28;20033;-49
2022/03/27 04:55:03;;;;;;;74.82;27.48;;;;;;;;;;5066824;28;20024;-49
2022/03/27 04:57:35;;;;;;;70.25;27.42;;;;;;;;;;5065565;28;20407;-48
2022/03/27 05:00:02;;;;;;;82.03;27.10;;;;;;;;;;5065543;28;20043;-49
2022/03/27 05:02:28;;;;;;;87.47;29.42;;;;;;;;;;5064639;28;20055;-48
2022/03/27 05:04:53;;;;;;;80.45;28.35;;;;;;;;;;5066556;28;20098;-49
2022/03/27 05:07:19;;;;;;;73.45;28.98;;;;;;;;;;5063122;28;20532;-49
2022/03/27 05:09:45;;;;;;;70.68;28.20;;;;;;;;;;5064290;28;20040;-49
2022/03/27 05:12:10;;;;;;;72.10;28.27;;;;;;;;;;5063531;28;20420;-49
2022/03/27 05:14:36;;;;;;;72.90;27.42;;;;;;;;;;5063753;28;20419;-49
2022/03/27 05:17:03;;;;;;;80.93;29.77;;;;;;;;;;5066494;28;20123;-48
2022/03/27 05:19:29;;;;;;;89.03;29.92;;;;;;;;;;5063392;28;20040;-49
2022/03/27 05:21:54;;;;;;;73.00;28.08;;;;;;;;;;5066304;28;20028;-48
2022/03/27 05:24:20;;;;;;;72.45;27.63;;;;;;;;;;5066405;28;20035;-49
2022/03/27 05:26:45;;;;;;;70.30;28.52;;;;;;;;;;5064189;28;20048;-49
2022/03/27 05:29:11;;;;;;;81.85;28.90;;;;;;;;;;5059763;28;20343;-48
2022/03/27 05:31:36;;;;;;;71.00;27.58;;;;;;;;;;5060243;28;20037;-48
2022/03/27 05:34:03;;;;;;;83.70;28.88;;;;;;;;;;5062900;28;20475;-48
2022/03/27 05:36:29;;;;;;;78.88;28.20;;;;;;;;;;5062594;28;20043;-49
2022/03/27 05:38:55;;;;;;;74.15;29.05;;;;;;;;;;5057483;28;20599;-48
2022/03/27 05:41:21;;;;;;;85.30;30.42;;;;;;;;;;5061980;28;20040;-48
2022/03/27 05:43:46;;;;;;;90.32;28.02;;;;;;;;;;5064135;28;20036;-49
2022/03/27 05:46:12;;;;;;;83.53;29.13;;;;;;;;;;5061644;28;20032;-49
2022/03/27 05:48:37;;;;;;;94.20;30.60;;;;;;;;;;5067760;28;20135;-48
2022/03/27 05:51:03;;;;;;;87.28;31.02;;;;;;;;;;5060537;28;20036;-49
2022/03/27 05:53:30;;;;;;;86.90;30.08;;;;;;;;;;5066647;28;20055;-48
2022/03/27 05:55:57;;;;;;;82.50;30.98;;;;;;;;;;5064555;28;20124;-49
2022/03/27 05:58:23;;;;;;;86.07;30.98;;;;;;;;;;5063453;28;20048;-48
2022/03/27 06:00:49;;;;;;;77.68;29.15;;;;;;;;;;5066559;28;20482;-51
2022/03/27 06:03:15;;;;;;;83.60;29.83;;;;;;;;;;5061374;28;20032;-48
2022/03/27 06:05:41;;;;;;;94.00;32.00;;;;;;;;;;5059625;28;20125;-49
2022/03/27 06:08:06;;;;;;;92.43;30.70;;;;;;;;;;5066770;28;20085;-48
2022/03/27 06:10:33;;;;;;;90.30;29.67;;;;;;;;;;5067885;28;20024;-48
2022/03/27 06:13:00;;;;;;;83.70;30.30;;;;;;;;;;5064572;28;20189;-49
2022/03/27 06:15:27;;;;;;;81.93;30.88;;;;;;;;;;5061118;28;20066;-49
2022/03/27 06:17:54;;;;;;;91.30;31.20;;;;;;;;;;5064043;28;20117;-50
2022/03/27 06:20:31;;;;;;;83.78;30.02;;;;;;;;;;5069345;28;20576;-48
2022/03/27 06:22:57;;;;;;;88.85;29.13;;;;;;;;;;5067950;28;20398;-49
2022/03/27 06:25:25;;;;;;;87.88;30.60;;;;;;;;;;5066779;28;20039;-48
2022/03/27 06:27:51;;;;;;;95.80;30.20;;;;;;;;;;5068197;28;20041;-48
2022/03/27 06:30:20;;;;;;;92.65;29.98;;;;;;;;;;5067174;28;20032;-48
2022/03/27 06:32:46;;;;;;;86.40;30.23;;;;;;;;;;5067683;28;20032;-49
2022/03/27 06:35:13;;;;;;;78.03;30.30;;;;;;;;;;5068303;28;20036;-49
2022/03/27 06:37:39;;;;;;;85.55;30.85;;;;;;;;;;5068940;28;20394;-49
2022/03/27 06:40:06;;;;;;;89.05;31.90;;;;;;;;;;5067712;28;20028;-49
2022/03/27 06:42:32;;;;;;;92.68;31.73;;;;;;;;;;5068034;28;20453;-48
2022/03/27 06:44:58;;;;;;;88.40;31.83;;;;;;;;;;5063025;28;20116;-52
2022/03/27 06:47:26;;;;;;;88.43;30.88;;;;;;;;;;5069533;28;20020;-48
2022/03/27 06:49:53;;;;;;;90.70;30.55;;;;;;;;;;5062987;28;20839;-48
2022/03/27 06:52:20;;;;;;;82.68;31.33;;;;;;;;;;5067697;28;20077;-48
2022/03/27 06:54:46;;;;;;;87.97;31.98;;;;;;;;;;5069044;28;20419;-49
2022/03/27 06:57:14;;;;;;;92.82;30.88;;;;;;;;;;5068534;28;20032;-50
2022/03/27 07:05:15;;;;;;;89.18;31.73;;;;;;;;;;5067957;28;20035;-50
2022/03/27 07:07:44;;;;;;;84.88;32.38;;;;;;;;;;5065717;28;20029;-48
2022/03/27 07:10:11;;;;;;;92.68;32.13;;;;;;;;;;5065246;28;20403;-49
2022/03/27 07:12:42;;;;;;;99.35;31.83;;;;;;;;;;5064475;28;21242;-50
2022/03/27 07:15:08;;;;;;;92.38;33.13;;;;;;;;;;5064695;28;20476;-49
2022/03/27 07:17:46;;;;;;;92.30;32.13;;;;;;;;;;5063614;28;20097;-48
2022/03/27 07:20:12;;;;;;;90.93;32.10;;;;;;;;;;5061718;28;20110;-48
2022/03/27 07:22:39;;;;;;;95.68;33.92;;;;;;;;;;5066912;28;20108;-50
2022/03/27 07:25:07;;;;;;;101.45;35.55;;;;;;;;;;5064912;28;20024;-48
2022/03/27 07:27:33;;;;;;;97.72;33.90;;;;;;;;;;5063535;28;20032;-48
2022/03/27 07:29:59;;;;;;;90.72;33.13;;;;;;;;;;5065508;28;20040;-49
2022/03/27 07:32:24;;;;;;;106.93;32.92;;;;;;;;;;5067568;28;20498;-48
2022/03/27 07:34:49;;;;;;;103.70;33.78;;;;;;;;;;5068004;28;20143;-50
2022/03/27 07:37:15;;;;;;;102.43;32.45;;;;;;;;;;5061619;28;20036;-48
2022/03/27 07:39:41;;;;;;;93.38;33.35;;;;;;;;;;5067030;28;20490;-49
2022/03/27 07:42:07;;;;;;;106.30;34.85;;;;;;;;;;5065322;28;20398;-49
2022/03/27 07:44:32;;;;;;;96.63;35.58;;;;;;;;;;5063693;28;20419;-49
2022/03/27 07:46:59;;;;;;;98.43;34.03;;;;;;;;;;5066299;28;20044;-48
2022/03/27 07:49:26;;;;;;;93.35;33.25;;;;;;;;;;5063593;28;20032;-48
2022/03/27 07:51:53;;;;;;;97.32;34.72;;;;;;;;;;5062340;28;20137;-49
2022/03/27 07:54:19;;;;;;;95.18;34.15;;;;;;;;;;5061530;28;20062;-49
2022/03/27 07:56:44;;;;;;;89.55;35.13;;;;;;;;;;5062328;28;20103;-48
2022/03/27 07:59:10;;;;;;;101.13;37.20;;;;;;;;;;5065207;28;20039;-49
2022/03/27 08:01:35;;;;;;;110.95;37.08;;;;;;;;;;5066905;28;20031;-48
2022/03/27 08:04:00;;;;;;;103.72;37.95;;;;;;;;;;5066016;28;20402;-48
2022/03/27 08:06:26;;;;;;;104.40;38.58;;;;;;;;;;5067550;28;20124;-48
2022/03/27 08:08:52;;;;;;;108.32;39.17;;;;;;;;;;5070053;28;20028;-49
2022/03/27 08:11:17;;;;;;;114.97;38.45;;;;;;;;;;5065941;28;20151;-48
2022/03/27 08:13:43;;;;;;;112.38;39.20;;;;;;;;;;5067893;28;20119;-49
2022/03/27 08:16:09;;;;;;;115.45;39.33;;;;;;;;;;5066001;28;20422;-50
2022/03/27 08:18:34;;;;;;;110.78;38.55;;;;;;;;;;5063410;28;20033;-48
2022/03/27 08:21:00;;;;;;;121.55;40.75;;;;;;;;;;5062490;28;20089;-49
2022/03/27 08:23:26;;;;;;;119.35;42.15;;;;;;;;;;5061329;28;20333;-48
2022/03/27 08:28:36;;;;;;;135.85;44.75;;;;;;;;;;5065168;28;20071;-48
2022/03/27 08:31:02;;;;;;;130.25;44.13;;;;;;;;;;5066219;28;20059;-48
2022/03/27 08:33:27;;;;;;;126.55;44.33;;;;;;;;;;5067582;28;20584;-48
2022/03/27 08:35:54;;;;;;;158.68;46.53;;;;;;;;;;5065119;28;20032;-49
2022/03/27 08:38:20;;;;;;;141.45;45.50;;;;;;;;;;5066549;28;20027;-48
2022/03/27 08:40:47;;;;;;;139.60;46.83;;;;;;;;;;5065740;28;20035;-48
2022/03/27 08:43:14;;;;;;;142.70;46.03;;;;;;;;;;5068274;28;20024;-48
2022/03/27 08:45:41;;;;;;;153.95;48.65;;;;;;;;;;5064411;28;20067;-48
2022/03/27 08:48:08;;;;;;;155.30;46.40;;;;;;;;;;5064749;28;20043;-49
2022/03/27 08:50:39;;;;;;;152.88;46.33;;;;;;;;;;5064225;28;20402;-48
2022/03/27 08:53:07;;;;;;;145.10;46.28;;;;;;;;;;5062669;28;20777;-49
2022/03/27 08:55:46;;;;;;;144.13;44.67;;;;;;;;;;5066118;28;20067;-49
2022/03/27 08:58:12;;;;;;;139.07;43.83;;;;;;;;;;5066654;28;20138;-48
2022/03/27 09:00:38;;;;;;;146.88;47.38;;;;;;;;;;5063177;28;20055;-48
2022/03/27 09:03:05;;;;;;;143.77;44.47;;;;;;;;;;5065217;28;20051;-48
2022/03/27 09:05:34;;;;;;;150.65;45.35;;;;;;;;;;5066176;28;20056;-49
2022/03/27 09:08:09;;;;;;;151.57;44.47;;;;;;;;;;5066690;28;20589;-48
2022/03/27 09:10:36;;;;;;;140.95;43.97;;;;;;;;;;5062380;28;20029;-48
2022/03/27 09:13:03;;;;;;;157.60;47.60;;;;;;;;;;5066991;28;20064;-49
2022/03/27 09:15:29;;;;;;;155.93;46.53;;;;;;;;;;5066854;28;20025;-48
2022/03/27 09:18:02;;;;;;;138.77;43.58;;;;;;;;;;5062665;28;20035;-49
2022/03/27 09:20:31;;;;;;;148.70;43.75;;;;;;;;;;5066263;28;20520;-49
2022/03/27 09:23:08;;;;;;;143.23;44.70;;;;;;;;;;5064141;28;20047;-49
2022/03/27 09:25:47;;;;;;;134.55;41.58;;;;;;;;;;5061397;28;20043;-48
2022/03/27 09:28:28;;;;;;;134.25;41.63;;;;;;;;;;5066159;28;20413;-49
2022/03/27 09:30:55;;;;;;;125.05;42.42;;;;;;;;;;5066816;28;20032;-48
2022/03/27 09:33:34;;;;;;;125.28;42.00;;;;;;;;;;5066865;28;20029;-48
2022/03/27 09:36:11;;;;;;;135.27;43.55;;;;;;;;;;5064292;28;20032;-50
2022/03/27 09:38:37;;;;;;;128.30;42.05;;;;;;;;;;5063217;28;20035;-50
2022/03/27 09:41:03;;;;;;;141.20;42.78;;;;;;;;;;5062954;28;20040;-49
2022/03/27 09:43:29;;;;;;;151.35;44.92;;;;;;;;;;5066154;28;20073;-48
2022/03/27 09:46:00;;;;;;;143.55;42.58;;;;;;;;;;5062732;28;20115;-49
2022/03/27 09:48:26;;;;;;;133.40;42.08;;;;;;;;;;5061432;28;20112;-50
2022/03/27 09:50:53;;;;;;;129.23;41.00;;;;;;;;;;5068279;28;20036;-50
2022/03/27 09:53:32;;;;;;;139.60;41.30;;;;;;;;;;5062776;28;20082;-49
2022/03/27 09:56:00;;;;;;;135.10;39.80;;;;;;;;;;5064153;28;20036;-50
2022/03/27 09:58:37;;;;;;;149.82;42.25;;;;;;;;;;5061854;28;20031;-49
2022/03/27 10:01:22;;;;;;;142.80;42.17;;;;;;;;;;5066142;28;20068;-48
2022/03/27 10:04:04;;;;;;;134.80;40.63;;;;;;;;;;5069258;28;20031;-49
2022/03/27 10:06:40;;;;;;;131.07;39.50;;;;;;;;;;5068932;28;20563;-49
2022/03/27 10:09:11;;;;;;;132.90;42.38;;;;;;;;;;5067760;28;20268;-49
2022/03/27 10:11:39;;;;;;;144.60;41.20;;;;;;;;;;5069559;28;20032;-49
2022/03/27 10:14:06;;;;;;;140.10;40.60;;;;;;;;;;5067364;28;20067;-49
2022/03/27 10:16:35;;;;;;;136.60;42.33;;;;;;;;;;5069688;28;20124;-49
2022/03/27 10:19:07;;;;;;;135.02;40.10;;;;;;;;;;5068145;28;20036;-49
2022/03/27 10:21:34;;;;;;;131.32;41.45;;;;;;;;;;5068066;28;20040;-48
2022/03/27 10:24:13;;;;;;;135.80;39.45;;;;;;;;;;5070089;28;20516;-48
2022/03/27 10:26:40;;;;;;;128.20;40.45;;;;;;;;;;5068744;28;20036;-50
2022/03/27 10:29:07;;;;;;;133.88;40.97;;;;;;;;;;5067329;28;20139;-49
2022/03/27 10:31:33;;;;;;;123.60;39.58;;;;;;;;;;5068893;28;20025;-50
2022/03/27 10:34:00;;;;;;;137.35;38.63;;;;;;;;;;5068702;28;20059;-49
2022/03/27 10:36:42;;;;;;;114.68;37.17;;;;;;;;;;5069849;28;20043;-49
2022/03/27 10:39:43;;;;;;;137.73;38.83;;;;;;;;;;5066208;28;20063;-49
2022/03/27 10:42:30;;;;;;;103.45;34.28;;;;;;;;;;5069908;28;20077;-49
2022/03/27 10:45:06;;;;;;;119.80;37.00;;;;;;;;;;5066461;28;20023;-50
2022/03/27 10:47:31;;;;;;;116.05;36.95;;;;;;;;;;5062288;28;20053;-49
2022/03/27 10:50:04;;;;;;;119.90;38.58;;;;;;;;;;5062454;28;20059;-49
2022/03/27 10:52:36;;;;;;;132.05;40.65;;;;;;;;;;5065151;28;20925;-50
2022/03/27 10:55:11;;;;;;;;;;;;;;;;;;5069064;28;20063;-50
2022/03/27 10:57:45;;;;;;;118.32;35.75;;;;;;;;;;5070407;28;20402;-49
2022/03/27 11:00:12;;;;;;;108.95;36.40;;;;;;;;;;5068476;28;20035;-51
2022/03/27 11:02:50;;;;;;;125.82;37.50;;;;;;;;;;5064812;28;20040;-49
2022/03/27 11:05:31;;;;;;;118.60;37.92;;;;;;;;;;5067694;28;20506;-49
2022/03/27 11:08:16;;;;;;;124.90;39.33;;;;;;;;;;5068071;28;20054;-49
2022/03/27 11:10:45;;;;;;;130.13;38.10;;;;;;;;;;5067560;28;20058;-49
2022/03/27 11:13:26;;;;;;;117.38;38.83;;;;;;;;;;5065578;28;20020;-51
2022/03/27 11:16:08;;;;;;;118.40;39.00;;;;;;;;;;5064888;28;20044;-49
2022/03/27 11:18:44;;;;;;;126.80;37.63;;;;;;;;;;5060740;28;20041;-49
2022/03/27 11:21:12;;;;;;;126.70;38.45;;;;;;;;;;5066777;28;20265;-49
2022/03/27 11:23:39;;;;;;;125.07;38.47;;;;;;;;;;5067337;28;20032;-49
2022/03/27 11:26:20;;;;;;;115.18;37.38;;;;;;;;;;5059746;28;20516;-49
2022/03/27 11:29:04;;;;;;;112.65;37.05;;;;;;;;;;5065677;28;20036;-49
2022/03/27 11:31:33;;;;;;;117.80;36.53;;;;;;;;;;5068557;28;20031;-49
2022/03/27 11:34:04;;;;;;;116.93;36.78;;;;;;;;;;5064240;28;20115;-49
2022/03/27 11:36:31;;;;;;;100.93;33.53;;;;;;;;;;5063129;28;20516;-49
2022/03/27 11:39:02;;;;;;;125.30;35.17;;;;;;;;;;5065825;28;20040;-49
2022/03/27 11:41:47;;;;;;;94.22;32.13;;;;;;;;;;5064596;28;20037;-49
2022/03/27 11:45:06;;;;;;;101.47;34.35;;;;;;;;;;5059318;28;20502;-49
2022/03/27 11:47:07;;;;;;;101.88;35.65;;;;;;;;;;5066706;28;20036;-49
2022/03/27 11:49:39;;;;;;;100.05;32.90;;;;;;;;;;5063081;28;20028;-49
2022/03/27 11:52:22;;;;;;;97.95;33.95;;;;;;;;;;5063309;28;20430;-49
2022/03/27 11:54:48;;;;;;;106.80;34.25;;;;;;;;;;5060039;28;20028;-49
2022/03/27 11:57:16;;;;;;;124.03;35.17;;;;;;;;;;5061208;28;20021;-48
2022/03/27 11:59:52;;;;;;;90.10;32.67;;;;;;;;;;5064656;28;20032;-49
2022/03/27 12:02:20;;;;;;;114.57;33.15;;;;;;;;;;5061592;28;20028;-49
2022/03/27 12:04:57;;;;;;;95.75;33.20;;;;;;;;;;5067450;28;20429;-49
2022/03/27 12:07:25;;;;;;;97.88;34.55;;;;;;;;;;5067299;28;20119;-49
2022/03/27 12:10:01;;;;;;;97.40;34.60;;;;;;;;;;5066725;28;20707;-49
2022/03/27 12:12:28;;;;;;;101.32;32.97;;;;;;;;;;5059478;28;20402;-49
2022/03/27 12:15:09;;;;;;;100.03;32.90;;;;;;;;;;5060409;28;20086;-49
2022/03/27 12:17:44;;;;;;;97.57;32.65;;;;;;;;;;5059486;28;20154;-49
2022/03/27 12:20:11;;;;;;;99.03;33.20;;;;;;;;;;5062087;28;20040;-49
2022/03/27 12:22:44;;;;;;;88.65;30.92;;;;;;;;;;5064856;28;20521;-49
2022/03/27 12:25:22;;;;;;;91.53;31.42;;;;;;;;;;5065319;28;20036;-50
2022/03/27 12:30:44;;;;;;;84.97;31.20;;;;;;;;;;5065327;28;20036;-49
2022/03/27 12:33:10;;;;;;;85.00;31.85;;;;;;;;;;5064751;28;20028;-50
2022/03/27 12:35:36;;;;;;;89.95;31.90;;;;;;;;;;5064660;28;20048;-49
2022/03/27 12:38:01;;;;;;;79.88;30.95;;;;;;;;;;5066993;28;20032;-49
2022/03/27 12:40:28;;;;;;;76.07;31.83;;;;;;;;;;5061208;28;20478;-49
2022/03/27 12:43:09;;;;;;;78.05;29.92;;;;;;;;;;5062325;28;20043;-49
2022/03/27 12:45:36;;;;;;;79.18;30.92;;;;;;;;;;5063559;28;20083;-50
2022/03/27 12:48:28;;;;;;;85.18;30.85;;;;;;;;;;5064304;28;20064;-50
2022/03/27 12:50:56;;;;;;;90.13;31.35;;;;;;;;;;5063087;28;20025;-49
2022/03/27 12:53:21;;;;;;;75.60;30.13;;;;;;;;;;5065552;28;20032;-49
2022/03/27 12:55:48;;;;;;;74.85;30.83;;;;;;;;;;5066555;28;20523;-49
2022/03/27 12:58:16;;;;;;;72.93;29.48;;;;;;;;;;5058987;28;20036;-51
2022/03/27 13:00:43;;;;;;;78.97;30.30;;;;;;;;;;5063350;28;20040;-52
2022/03/27 13:03:24;;;;;;;68.88;26.88;;;;;;;;;;5066459;28;20024;-49
2022/03/27 13:05:53;;;;;;;67.72;26.60;;;;;;;;;;5081083;28;20055;-49
2022/03/27 13:08:39;;;;;;;73.85;27.67;;;;;;;;;;5068375;28;20747;-48
2022/03/27 13:11:17;;;;;;;80.45;31.27;;;;;;;;;;5059826;28;20035;-49
2022/03/27 13:13:48;;;;;;;75.25;28.63;;;;;;;;;;5063370;28;20106;-49
2022/03/27 13:16:44;;;;;;;75.85;32.03;;;;;;;;;;5065520;28;20031;-49
2022/03/27 13:19:18;;;;;;;79.88;30.23;;;;;;;;;;5057219;28;20050;-49
2022/03/27 13:21:51;;;;;;;86.22;32.22;;;;;;;;;;5064044;28;20141;-48
2022/03/27 13:24:19;;;;;;;93.03;32.88;;;;;;;;;;5061091;28;20032;-49
2022/03/27 13:26:50;;;;;;;79.43;31.13;;;;;;;;;;5065103;28;20028;-51
2022/03/27 13:29:18;;;;;;;84.38;32.45;;;;;;;;;;5064704;28;20052;-49
2022/03/27 13:31:45;;;;;;;99.45;33.65;;;;;;;;;;5065811;28;20049;-49
2022/03/27 13:34:12;;;;;;;72.53;31.40;;;;;;;;;;5065291;28;20141;-49
2022/03/27 13:36:41;;;;;;;77.55;32.53;;;;;;;;;;5063273;28;20127;-48
2022/03/27 13:39:08;;;;;;;76.93;30.65;;;;;;;;;;5060295;28;20060;-50
2022/03/27 13:44:19;;;;;;;77.53;29.65;;;;;;;;;;5058341;28;20429;-48
2022/03/27 13:46:46;;;;;;;78.82;33.20;;;;;;;;;;5061090;28;20040;-50
2022/03/27 13:49:12;;;;;;;88.13;35.47;;;;;;;;;;5065805;28;20037;-49
2022/03/27 13:51:37;;;;;;;85.70;33.55;;;;;;;;;;5060527;28;20554;-49
2022/03/27 13:54:03;;;;;;;88.25;34.55;;;;;;;;;;5057108;28;20035;-48
2022/03/27 13:56:31;;;;;;;81.97;33.35;;;;;;;;;;5061437;28;20035;-49
2022/03/27 13:58:58;;;;;;;86.20;33.65;;;;;;;;;;5066827;28;20024;-49
2022/03/27 14:01:24;;;;;;;91.72;34.03;;;;;;;;;;5063853;28;20083;-49
2022/03/27 14:03:51;;;;;;;96.65;33.53;;;;;;;;;;5064007;28;23085;-48
2022/03/27 14:06:16;;;;;;;87.30;34.33;;;;;;;;;;5059128;28;20079;-49
2022/03/27 14:08:43;;;;;;;86.40;34.33;;;;;;;;;;5061437;28;20051;-49
2022/03/27 14:11:08;;;;;;;83.22;32.88;;;;;;;;;;5064775;28;20114;-50
2022/03/27 14:13:34;;;;;;;74.90;33.25;;;;;;;;;;5058805;28;20028;-51
2022/03/27 14:16:00;;;;;;;81.88;32.35;;;;;;;;;;5065658;28;20409;-48
2022/03/27 14:18:26;;;;;;;71.43;31.75;;;;;;;;;;5061579;28;20032;-49
2022/03/27 14:20:51;;;;;;;77.47;31.02;;;;;;;;;;5063211;28;20081;-49
2022/03/27 14:23:17;;;;;;;66.72;30.90;;;;;;;;;;5066342;28;20555;-51
2022/03/27 14:25:43;;;;;;;77.10;30.02;;;;;;;;;;5059852;28;20025;-48
2022/03/27 14:28:09;;;;;;;72.20;30.15;;;;;;;;;;5060171;28;20040;-49
2022/03/27 14:30:36;;;;;;;63.65;29.90;;;;;;;;;;5058768;28;20445;-52
2022/03/27 14:33:02;;;;;;;84.07;34.10;;;;;;;;;;5062190;28;20078;-50
2022/03/27 14:35:28;;;;;;;81.07;33.22;;;;;;;;;;5067430;28;20047;-49